createdAt,value
2022-08-07T00:00:28.775Z,85.51
2022-08-07T00:01:44.256Z,85.67
2022-08-07T00:02:41.644Z,85.90
2022-08-07T00:03:47.346Z,85.61
2022-08-07T00:04:50.230Z,85.71
2022-08-07T00:05:57.809Z,85.74
2022-08-07T00:07:05.128Z,85.99
2022-08-07T00:08:09.481Z,86.10
2022-08-07T00:09:17.066Z,85.90
2022-08-07T00:10:31.623Z,85.94
2022-08-07T00:11:48.120Z,86.18
2022-08-07T00:12:57.941Z,85.27
2022-08-07T00:13:50.385Z,86.43
2022-08-07T00:14:54.933Z,86.31
2022-08-07T00:15:59.877Z,86.53
2022-08-07T00:17:07.304Z,86.86
2022-08-07T00:18:19.349Z,86.69
2022-08-07T00:19:26.080Z,86.78
2022-08-07T00:20:29.829Z,86.88
2022-08-07T00:21:56.944Z,86.82
2022-08-07T00:22:39.034Z,87.35
2022-08-07T00:23:44.591Z,87.20
2022-08-07T00:24:49.953Z,87.13
2022-08-07T00:25:59.285Z,86.87
2022-08-07T00:27:07.438Z,87.44
2022-08-07T00:53:58.065Z,89.60
2022-08-07T00:55:04.733Z,89.86
2022-08-07T00:56:14.112Z,89.70
2022-08-07T00:57:18.961Z,89.38
2022-08-07T00:58:24.706Z,89.23
2022-08-07T00:59:32.452Z,89.57
2022-08-07T01:00:36.090Z,89.64
2022-08-07T01:01:44.248Z,89.19
2022-08-07T01:02:46.442Z,89.42
2022-08-07T01:04:00.392Z,89.68
2022-08-07T01:05:03.070Z,89.67
2022-08-07T01:06:13.513Z,89.67
2022-08-07T01:07:23.656Z,89.49
2022-08-07T01:08:31.444Z,89.48
2022-08-07T01:10:04.403Z,89.64
2022-08-07T01:10:47.601Z,89.46
2022-08-07T01:12:09.831Z,90.10
2022-08-07T01:13:00.811Z,89.92
2022-08-07T01:14:06.560Z,89.56
2022-08-07T01:15:17.779Z,89.73
2022-08-07T01:16:30.342Z,89.91
2022-08-07T01:17:25.907Z,89.69
2022-08-07T01:18:31.836Z,90.11
2022-08-07T01:19:38.575Z,90.52
2022-08-07T01:20:59.492Z,91.04
2022-08-07T01:21:58.112Z,91.41
2022-08-07T01:23:12.381Z,90.96
2022-08-07T01:24:11.444Z,90.77
2022-08-07T01:25:40.287Z,90.47
2022-08-07T01:26:26.266Z,90.65
2022-08-07T01:27:32.291Z,90.59
2022-08-07T01:28:37.566Z,90.39
2022-08-07T01:29:42.168Z,90.14
2022-08-07T01:30:47.086Z,90.12
2022-08-07T01:31:53.839Z,90.04
2022-08-07T01:32:58.409Z,90.59
2022-08-07T01:34:04.123Z,90.51
2022-08-07T01:35:10.153Z,90.69
2022-08-07T01:36:16.777Z,90.84
2022-08-07T01:37:24.184Z,90.67
2022-08-07T01:38:32.246Z,90.67
2022-08-07T01:39:39.603Z,90.78
2022-08-07T01:40:48.792Z,91.60
2022-08-07T01:42:32.455Z,92.10
2022-08-07T01:43:03.388Z,92.49
2022-08-07T01:44:12.378Z,92.94
2022-08-07T01:45:36.222Z,92.96
2022-08-07T01:46:31.158Z,92.93
2022-08-07T01:48:21.629Z,93.39
2022-08-07T01:48:46.833Z,93.76
2022-08-07T01:49:53.620Z,94.11
2022-08-07T01:51:24.273Z,94.56
2022-08-07T01:52:11.225Z,94.98
2022-08-07T01:53:21.560Z,95.00
2022-08-07T01:54:37.082Z,95.06
2022-08-07T01:55:39.880Z,94.44
2022-08-07T01:57:03.692Z,94.18
2022-08-07T01:58:29.611Z,94.08
2022-08-07T01:59:21.359Z,93.80
2022-08-07T02:00:29.969Z,93.40
2022-08-07T02:02:02.240Z,93.36
2022-08-07T02:04:05.748Z,93.11
2022-08-07T02:05:43.173Z,93.19
2022-08-07T02:06:31.706Z,93.07
2022-08-07T02:07:50.446Z,93.54
2022-08-07T02:08:54.628Z,93.16
2022-08-07T02:10:09.382Z,93.45
2022-08-07T02:11:30.526Z,93.48
2022-08-07T02:12:29.172Z,93.46
2022-08-07T02:13:57.713Z,93.54
2022-08-07T02:14:42.178Z,93.68
2022-08-07T02:15:49.916Z,93.40
2022-08-07T02:17:00.544Z,93.32
2022-08-07T02:18:10.850Z,93.34
2022-08-07T02:20:05.177Z,92.81
2022-08-07T02:20:31.996Z,92.74
2022-08-07T02:21:55.075Z,92.71
2022-08-07T02:22:46.086Z,92.59
2022-08-07T02:23:50.768Z,92.55
2022-08-07T02:24:56.674Z,92.84
2022-08-07T02:26:31.729Z,93.16
2022-08-07T02:27:09.103Z,93.59
2022-08-07T02:28:24.438Z,93.73
2022-08-07T02:29:21.764Z,92.95
2022-08-07T02:30:29.795Z,93.52
2022-08-07T02:31:35.942Z,92.85
2022-08-07T02:33:00.695Z,92.34
2022-08-07T02:34:03.700Z,92.52
2022-08-07T02:34:53.969Z,92.64
2022-08-07T02:36:29.246Z,92.85
2022-08-07T02:37:10.402Z,93.04
2022-08-07T02:38:23.151Z,92.78
2022-08-07T02:39:43.086Z,93.17
2022-08-07T02:40:40.100Z,93.87
2022-08-07T02:41:50.481Z,93.55
2022-08-07T02:42:52.458Z,93.69
2022-08-07T02:44:00.307Z,93.29
2022-08-07T02:45:18.440Z,93.29
2022-08-07T02:46:17.028Z,93.22
2022-08-07T02:47:23.915Z,92.91
2022-08-07T02:48:37.784Z,93.05
2022-08-07T02:49:55.919Z,92.58
2022-08-07T02:50:52.246Z,92.41
2022-08-07T02:51:59.148Z,92.13
2022-08-07T02:53:13.988Z,92.04
2022-08-07T02:54:20.222Z,91.82
2022-08-07T02:56:03.451Z,91.30
2022-08-07T02:56:35.971Z,90.59
2022-08-07T02:57:41.483Z,89.85
2022-08-07T02:58:47.388Z,89.88
2022-08-07T02:59:54.756Z,90.10
2022-08-07T03:01:01.932Z,89.82
2022-08-07T03:02:10.360Z,90.65
2022-08-07T03:04:24.123Z,90.19
2022-08-07T03:05:35.713Z,90.03
2022-08-07T03:06:34.640Z,89.97
2022-08-07T03:08:07.582Z,89.72
2022-08-07T03:08:54.776Z,89.71
2022-08-07T03:10:03.532Z,89.61
2022-08-07T03:11:08.075Z,89.39
2022-08-07T03:12:22.274Z,90.11
2022-08-07T03:13:20.729Z,90.45
2022-08-07T03:14:27.710Z,90.08
2022-08-07T03:15:47.723Z,89.84
2022-08-07T03:16:38.488Z,89.66
2022-08-07T03:17:53.252Z,89.47
2022-08-07T03:18:53.343Z,89.68
2022-08-07T03:19:59.067Z,89.12
2022-08-07T03:21:11.495Z,89.17
2022-08-07T03:22:21.018Z,89.24
2022-08-07T03:23:34.165Z,88.98
2022-08-07T03:24:38.664Z,88.80
2022-08-07T03:25:45.468Z,88.75
2022-08-07T03:26:58.907Z,89.16
2022-08-07T03:28:37.168Z,88.44
2022-08-07T03:30:27.808Z,88.52
2022-08-07T03:31:43.182Z,88.77
2022-08-07T03:32:49.111Z,88.91
2022-08-07T03:33:51.080Z,88.98
2022-08-07T03:35:16.558Z,88.35
2022-08-07T03:36:11.687Z,88.11
2022-08-07T03:37:19.067Z,88.16
2022-08-07T03:38:29.578Z,88.23
2022-08-07T03:39:45.822Z,87.79
2022-08-07T03:40:46.099Z,87.52
2022-08-07T03:41:54.898Z,87.57
2022-08-07T03:43:04.350Z,87.54
2022-08-07T03:44:12.915Z,88.16
2022-08-07T03:45:29.809Z,87.51
2022-08-07T03:46:33.964Z,87.37
2022-08-07T03:47:47.663Z,87.38
2022-08-07T03:49:02.122Z,86.92
2022-08-07T03:49:52.518Z,87.49
2022-08-07T03:51:00.250Z,86.96
2022-08-07T03:52:22.867Z,86.75
2022-08-07T03:53:19.902Z,86.58
2022-08-07T03:54:35.676Z,86.29
2022-08-07T03:55:58.488Z,85.78
2022-08-07T03:57:03.995Z,85.60
2022-08-07T03:58:34.995Z,86.35
2022-08-07T03:59:09.551Z,86.25
2022-08-07T04:00:16.087Z,85.85
2022-08-07T04:01:22.473Z,85.40
2022-08-07T04:02:28.208Z,84.75
2022-08-07T04:03:49.991Z,84.66
2022-08-07T04:04:42.878Z,84.29
2022-08-07T04:05:50.659Z,84.20
2022-08-07T04:07:01.030Z,84.66
2022-08-07T04:08:10.279Z,83.99
2022-08-07T04:09:16.942Z,83.54
2022-08-07T04:10:23.195Z,83.32
2022-08-07T04:12:25.548Z,83.12
2022-08-07T04:12:38.505Z,82.87
2022-08-07T04:14:10.326Z,82.55
2022-08-07T04:14:52.094Z,82.61
2022-08-07T04:15:58.626Z,83.20
2022-08-07T04:17:05.317Z,83.20
2022-08-07T04:18:56.560Z,82.45
2022-08-07T04:19:21.814Z,82.03
2022-08-07T04:20:29.428Z,81.62
2022-08-07T04:21:38.475Z,80.98
2022-08-07T04:22:53.817Z,77.60
2022-08-07T04:24:07.027Z,74.75
2022-08-07T04:25:01.978Z,73.01
2022-08-07T04:26:10.505Z,73.28
2022-08-07T04:27:25.336Z,74.28
2022-08-07T04:28:23.003Z,75.49
2022-08-07T04:29:30.406Z,76.50
2022-08-07T04:30:55.180Z,76.88
2022-08-07T04:32:03.012Z,77.22
2022-08-07T04:32:59.582Z,77.00
2022-08-07T04:34:06.403Z,76.51
2022-08-07T04:35:13.871Z,75.30
2022-08-07T04:36:22.734Z,73.89
2022-08-07T04:37:28.769Z,71.74
2022-08-07T04:38:35.279Z,68.21
2022-08-07T04:40:56.864Z,58.97
2022-08-07T04:42:06.837Z,56.41
2022-08-07T04:43:14.210Z,52.21
2022-08-07T04:44:23.369Z,49.13
2022-08-07T04:46:00.270Z,46.95
2022-08-07T04:47:04.116Z,44.88
2022-08-07T04:48:05.582Z,44.29
2022-08-07T04:49:20.016Z,43.27
2022-08-07T04:50:38.407Z,42.07
2022-08-07T04:52:18.416Z,40.30
2022-08-07T04:54:58.718Z,39.21
2022-08-07T04:58:10.148Z,41.02
2022-08-07T04:58:16.619Z,38.99
2022-08-07T05:00:14.625Z,42.02
2022-08-07T05:01:34.926Z,40.63
2022-08-07T05:02:48.079Z,39.25
2022-08-07T05:04:07.909Z,37.54
2022-08-07T05:05:53.207Z,37.76
2022-08-07T05:06:43.423Z,37.54
2022-08-07T05:08:01.777Z,36.46
2022-08-07T05:09:45.887Z,35.78
2022-08-07T05:10:39.381Z,36.29
2022-08-07T05:11:57.158Z,35.64
2022-08-07T05:14:44.826Z,36.27
2022-08-07T05:14:55.290Z,35.53
2022-08-07T05:15:23.270Z,34.55
2022-08-07T05:16:25.847Z,33.96
2022-08-07T05:17:51.697Z,33.86
2022-08-07T05:18:44.294Z,33.75
2022-08-07T05:19:51.759Z,33.53
2022-08-07T05:21:00.668Z,34.05
2022-08-07T05:22:10.736Z,34.61
2022-08-07T05:23:30.009Z,33.84
2022-08-07T05:24:40.531Z,32.75
2022-08-07T05:26:11.638Z,31.55
2022-08-07T05:26:52.634Z,30.86
2022-08-07T05:28:19.872Z,31.19
2022-08-07T05:29:13.738Z,31.78
2022-08-07T05:30:32.708Z,31.90
2022-08-07T05:31:34.573Z,31.98
2022-08-07T05:32:42.848Z,31.55
2022-08-07T05:34:01.004Z,30.96
2022-08-07T05:34:56.637Z,30.49
2022-08-07T05:36:02.298Z,30.52
2022-08-07T05:37:09.041Z,29.47
2022-08-07T05:39:00.331Z,29.98
2022-08-07T05:40:18.070Z,29.73
2022-08-07T05:40:37.831Z,30.73
2022-08-07T05:42:00.279Z,32.21
2022-08-07T05:42:55.809Z,32.59
2022-08-07T05:44:08.272Z,33.98
2022-08-07T05:45:25.819Z,35.97
2022-08-07T05:46:21.737Z,37.79
2022-08-07T05:47:38.085Z,38.52
2022-08-07T05:48:34.436Z,39.23
2022-08-07T05:50:52.198Z,38.44
2022-08-07T05:51:56.225Z,39.88
2022-08-07T05:53:05.222Z,40.97
2022-08-07T05:54:31.055Z,40.75
2022-08-07T05:55:18.233Z,40.50
2022-08-07T05:56:30.071Z,41.41
2022-08-07T05:57:34.647Z,43.78
2022-08-07T05:58:41.006Z,44.48
2022-08-07T05:59:57.866Z,45.30
2022-08-07T06:01:05.054Z,44.54
2022-08-07T06:02:10.394Z,43.71
2022-08-07T06:03:17.141Z,43.74
2022-08-07T06:04:29.839Z,43.77
2022-08-07T06:05:31.303Z,44.88
2022-08-07T06:06:36.898Z,47.10
2022-08-07T06:08:14.034Z,48.07
2022-08-07T06:08:54.088Z,48.54
2022-08-07T06:10:05.223Z,49.74
2022-08-07T06:11:10.281Z,49.70
2022-08-07T06:12:15.707Z,50.70
2022-08-07T06:13:20.909Z,50.71
2022-08-07T06:14:30.201Z,50.41
2022-08-07T06:15:39.518Z,50.63
2022-08-07T06:16:50.216Z,51.66
2022-08-07T06:17:55.047Z,52.44
2022-08-07T06:19:02.950Z,53.38
2022-08-07T06:20:12.277Z,53.09
2022-08-07T06:22:15.936Z,53.08
2022-08-07T06:22:27.046Z,52.75
2022-08-07T06:24:36.743Z,51.73
2022-08-07T06:24:56.923Z,51.89
2022-08-07T06:25:57.056Z,52.32
2022-08-07T06:27:06.443Z,52.13
2022-08-07T06:28:14.909Z,52.19
2022-08-07T06:29:18.747Z,52.08
2022-08-07T06:30:35.487Z,50.45
2022-08-07T06:31:47.065Z,50.17
2022-08-07T06:32:39.291Z,49.82
2022-08-07T06:33:44.084Z,49.86
2022-08-07T06:34:50.698Z,45.76
2022-08-07T06:36:12.360Z,41.43
2022-08-07T06:37:02.631Z,38.02
2022-08-07T06:38:20.285Z,35.79
2022-08-07T06:40:15.759Z,34.39
2022-08-07T06:40:26.501Z,32.91
2022-08-07T06:42:02.284Z,31.80
2022-08-07T06:42:48.954Z,31.23
2022-08-07T06:44:01.825Z,31.11
2022-08-07T06:45:12.948Z,30.76
2022-08-07T06:46:31.427Z,30.54
2022-08-07T06:47:27.060Z,29.29
2022-08-07T06:48:32.936Z,28.83
2022-08-07T06:49:52.151Z,28.71
2022-08-07T06:50:48.129Z,28.52
2022-08-07T06:52:02.944Z,28.72
2022-08-07T06:53:05.384Z,29.58
2022-08-07T06:55:33.377Z,29.42
2022-08-07T06:55:53.989Z,29.34
2022-08-07T06:56:49.500Z,28.87
2022-08-07T06:57:56.350Z,27.85
2022-08-07T07:00:11.592Z,28.66
2022-08-07T07:00:13.186Z,28.82
2022-08-07T07:01:17.361Z,28.51
2022-08-07T07:02:53.419Z,29.04
2022-08-07T07:03:48.872Z,29.87
2022-08-07T07:04:35.559Z,29.22
2022-08-07T07:06:04.189Z,28.65
2022-08-07T07:07:00.245Z,27.36
2022-08-07T07:08:00.107Z,26.73
2022-08-07T07:09:19.503Z,26.75
2022-08-07T07:10:36.329Z,27.09
2022-08-07T07:12:07.748Z,27.28
2022-08-07T07:12:57.229Z,27.73
2022-08-07T07:14:08.526Z,27.10
2022-08-07T07:15:35.958Z,27.75
2022-08-07T07:16:49.905Z,26.22
2022-08-07T07:18:10.447Z,26.19
2022-08-07T07:19:55.100Z,25.74
2022-08-07T07:20:27.224Z,27.00
2022-08-07T07:22:04.317Z,27.01
2022-08-07T07:24:10.105Z,26.61
2022-08-07T07:24:11.034Z,26.82
2022-08-07T07:25:03.088Z,25.87
2022-08-07T07:26:34.980Z,26.41
2022-08-07T07:27:17.445Z,27.25
2022-08-07T07:28:42.669Z,27.48
2022-08-07T07:29:56.517Z,27.13
2022-08-07T07:30:45.473Z,27.09
2022-08-07T07:31:54.106Z,27.36
2022-08-07T07:33:00.449Z,27.90
2022-08-07T07:34:08.701Z,28.67
2022-08-07T07:35:15.761Z,27.96
2022-08-07T07:36:20.963Z,26.98
2022-08-07T07:37:47.165Z,27.13
2022-08-07T07:38:36.297Z,27.58
2022-08-07T07:39:52.027Z,27.71
2022-08-07T07:40:51.175Z,27.90
2022-08-07T07:42:12.981Z,27.37
2022-08-07T07:43:15.360Z,27.72
2022-08-07T07:44:21.650Z,27.49
2022-08-07T07:46:36.560Z,26.76
2022-08-07T07:46:36.617Z,27.54
2022-08-07T07:47:51.981Z,27.72
2022-08-07T07:48:49.548Z,27.64
2022-08-07T07:50:33.946Z,27.39
2022-08-07T07:51:03.170Z,27.99
2022-08-07T07:52:11.589Z,27.42
2022-08-07T07:53:23.299Z,27.79
2022-08-07T07:54:25.682Z,28.63
2022-08-07T07:55:45.798Z,27.92
2022-08-07T07:56:49.759Z,28.60
2022-08-07T07:57:58.352Z,27.88
2022-08-07T07:59:02.474Z,28.86
2022-08-07T08:00:10.199Z,29.23
2022-08-07T08:02:03.338Z,29.58
2022-08-07T08:02:35.337Z,29.83
2022-08-07T08:04:05.955Z,30.44
2022-08-07T08:04:44.299Z,30.48
2022-08-07T08:05:55.131Z,30.17
2022-08-07T08:07:02.648Z,30.21
2022-08-07T08:08:04.463Z,30.47
2022-08-07T08:09:09.660Z,31.22
2022-08-07T08:10:38.117Z,29.81
2022-08-07T08:11:59.986Z,30.41
2022-08-07T08:12:52.614Z,30.07
2022-08-07T08:13:54.521Z,30.53
2022-08-07T08:14:44.897Z,31.20
2022-08-07T08:15:58.773Z,30.27
2022-08-07T08:17:56.181Z,30.19
2022-08-07T08:18:17.558Z,30.77
2022-08-07T08:20:18.591Z,31.55
2022-08-07T08:20:38.410Z,31.14
2022-08-07T08:22:04.460Z,30.96
2022-08-07T08:23:30.583Z,32.18
2022-08-07T08:25:18.371Z,32.64
2022-08-07T08:26:30.484Z,32.19
2022-08-07T08:27:56.714Z,31.37
2022-08-07T08:28:53.156Z,31.78
2022-08-07T08:30:08.300Z,31.88
2022-08-07T08:31:30.411Z,31.96
2022-08-07T08:32:38.596Z,31.99
2022-08-07T08:33:49.459Z,32.37
2022-08-07T08:34:51.631Z,32.83
2022-08-07T08:35:57.985Z,32.46
2022-08-07T08:37:04.241Z,32.00
2022-08-07T08:38:13.498Z,32.17
2022-08-07T08:39:18.526Z,32.38
2022-08-07T08:40:36.027Z,31.72
2022-08-07T08:43:42.919Z,30.03
2022-08-07T08:44:56.593Z,30.31
2022-08-07T08:46:12.096Z,31.07
2022-08-07T08:47:47.333Z,30.47
2022-08-07T08:49:05.182Z,31.20
2022-08-07T08:50:39.118Z,31.82
2022-08-07T08:52:13.433Z,31.87
2022-08-07T08:53:00.154Z,31.66
2022-08-07T08:54:12.787Z,31.32
2022-08-07T08:55:53.275Z,31.37
2022-08-07T08:56:47.615Z,31.38
2022-08-07T08:58:20.309Z,30.31
2022-08-07T08:59:42.277Z,29.51
2022-08-07T09:00:52.826Z,29.64
2022-08-07T09:02:13.333Z,29.99
2022-08-07T09:03:21.488Z,31.34
2022-08-07T09:04:47.173Z,30.48
2022-08-07T09:06:00.914Z,30.42
2022-08-07T09:07:25.350Z,30.92
2022-08-07T09:10:23.326Z,31.10
2022-08-07T09:11:50.477Z,31.10
2022-08-07T09:12:42.574Z,30.28
2022-08-07T09:14:10.077Z,30.10
2022-08-07T09:16:22.376Z,30.84
2022-08-07T09:16:52.467Z,30.03
2022-08-07T09:18:11.374Z,30.84
2022-08-07T09:19:52.339Z,31.21
2022-08-07T09:20:40.685Z,30.87
2022-08-07T09:22:40.020Z,30.87
2022-08-07T09:24:34.138Z,30.61
2022-08-07T09:24:56.010Z,30.98
2022-08-07T09:26:28.169Z,31.34
2022-08-07T09:28:00.144Z,30.88
2022-08-07T09:30:28.270Z,28.87
2022-08-07T09:31:38.517Z,28.77
2022-08-07T09:33:05.540Z,29.05
2022-08-07T09:34:21.895Z,28.53
2022-08-07T09:36:02.674Z,29.21
2022-08-07T09:37:19.075Z,27.34
2022-08-07T09:38:53.840Z,27.34
2022-08-07T09:40:07.320Z,27.05
2022-08-07T09:41:20.945Z,27.09
2022-08-07T09:42:33.696Z,27.65
2022-08-07T09:44:05.853Z,28.64
2022-08-07T09:47:25.996Z,30.85
2022-08-07T09:47:49.623Z,30.52
2022-08-07T09:50:19.094Z,35.85
2022-08-07T09:51:14.751Z,37.05
2022-08-07T09:52:35.308Z,38.63
2022-08-07T09:53:47.228Z,40.97
2022-08-07T09:54:54.101Z,43.34
2022-08-07T09:57:46.552Z,44.05
2022-08-07T09:59:14.777Z,43.55
2022-08-07T10:00:29.881Z,44.46
2022-08-07T10:01:50.619Z,44.99
2022-08-07T10:04:06.492Z,45.11
2022-08-07T10:04:38.060Z,45.47
2022-08-07T10:06:12.008Z,44.96
2022-08-07T10:07:52.558Z,45.98
2022-08-07T10:08:51.352Z,47.73
2022-08-07T10:10:21.321Z,50.27
2022-08-07T10:12:18.173Z,52.71
2022-08-07T10:14:00.862Z,52.61
2022-08-07T10:15:02.955Z,54.27
2022-08-07T10:16:40.901Z,55.49
2022-08-07T10:18:10.872Z,54.20
2022-08-07T10:19:39.209Z,54.66
2022-08-07T10:21:19.939Z,55.46
2022-08-07T10:22:45.978Z,52.35
2022-08-07T10:24:06.408Z,50.51
2022-08-07T10:25:23.886Z,48.94
2022-08-07T10:26:32.947Z,49.94
2022-08-07T10:28:15.454Z,50.07
2022-08-07T10:29:43.330Z,50.40
2022-08-07T10:31:23.225Z,51.15
2022-08-07T10:32:52.956Z,50.87
2022-08-07T10:34:05.994Z,51.53
2022-08-07T10:35:25.737Z,50.72
2022-08-07T10:36:47.628Z,50.86
2022-08-07T10:38:21.724Z,50.51
2022-08-07T10:39:41.464Z,51.03
2022-08-07T10:40:38.710Z,52.23
2022-08-07T10:42:00.461Z,51.92
2022-08-07T10:43:19.433Z,50.98
2022-08-07T10:44:40.530Z,49.76
2022-08-07T10:45:58.317Z,49.64
2022-08-07T10:47:27.043Z,49.68
2022-08-07T10:49:06.198Z,48.75
2022-08-07T10:50:25.809Z,49.86
2022-08-07T10:53:09.288Z,49.17
2022-08-07T10:54:55.152Z,48.23
2022-08-07T10:56:09.621Z,47.01
2022-08-07T10:57:37.101Z,46.26
2022-08-07T10:58:59.681Z,46.14
2022-08-07T11:00:36.489Z,44.76
2022-08-07T11:01:51.832Z,44.60
2022-08-07T11:03:03.008Z,43.73
2022-08-07T11:04:37.491Z,41.92
2022-08-07T11:05:53.778Z,41.79
2022-08-07T11:07:24.575Z,42.03
2022-08-07T11:08:46.537Z,41.64
2022-08-07T11:10:08.830Z,40.94
2022-08-07T11:11:26.065Z,40.01
2022-08-07T11:12:35.561Z,40.74
2022-08-07T11:14:46.299Z,41.48
2022-08-07T11:15:00.551Z,41.97
2022-08-07T11:16:11.105Z,41.69
2022-08-07T11:17:43.544Z,41.54
2022-08-07T11:18:51.885Z,42.03
2022-08-07T11:20:03.747Z,41.98
2022-08-07T11:22:53.768Z,42.43
2022-08-07T11:24:04.204Z,42.62
2022-08-07T11:25:19.705Z,43.00
2022-08-07T11:26:38.609Z,42.58
2022-08-07T11:28:02.899Z,42.36
2022-08-07T11:29:01.204Z,42.62
2022-08-07T11:30:17.664Z,42.71
2022-08-07T11:31:21.578Z,43.02
2022-08-07T11:32:52.853Z,42.74
2022-08-07T11:34:19.150Z,41.44
2022-08-07T11:35:27.002Z,41.70
2022-08-07T11:36:52.446Z,41.38
2022-08-07T11:38:17.483Z,41.65
2022-08-07T11:39:59.819Z,42.48
2022-08-07T11:41:04.270Z,43.59
2022-08-07T11:42:29.934Z,43.02
2022-08-07T11:43:54.567Z,42.58
2022-08-07T11:44:57.644Z,43.28
2022-08-07T11:46:09.573Z,43.49
2022-08-07T11:47:26.169Z,43.10
2022-08-07T11:49:28.700Z,44.68
2022-08-07T11:52:14.246Z,44.11
2022-08-07T11:54:01.255Z,45.84
2022-08-07T11:55:18.984Z,45.86
2022-08-07T11:56:32.052Z,46.26
2022-08-07T11:57:59.686Z,43.49
2022-08-07T11:59:02.301Z,42.87
2022-08-07T12:00:28.276Z,44.57
2022-08-07T12:01:59.199Z,43.32
2022-08-07T12:03:45.023Z,44.84
2022-08-07T12:04:19.953Z,42.23
2022-08-07T12:05:49.101Z,42.26
2022-08-07T12:07:09.038Z,44.57
2022-08-07T12:08:25.953Z,45.38
2022-08-07T12:09:36.331Z,45.21
2022-08-07T12:10:49.720Z,44.96
2022-08-07T12:12:13.220Z,44.45
2022-08-07T12:13:35.543Z,44.09
2022-08-07T12:14:56.143Z,44.07
2022-08-07T12:16:05.986Z,43.36
2022-08-07T12:17:19.734Z,43.45
2022-08-07T12:18:29.622Z,44.13
2022-08-07T12:20:04.906Z,44.69
2022-08-07T12:21:55.560Z,45.69
2022-08-07T12:22:55.927Z,47.00
2022-08-07T12:24:06.789Z,47.80
2022-08-07T12:26:03.350Z,48.58
2022-08-07T12:27:04.800Z,49.38
2022-08-07T12:28:17.461Z,49.20
2022-08-07T12:29:40.541Z,49.36
2022-08-07T12:30:53.082Z,50.51
2022-08-07T12:32:12.077Z,49.97
2022-08-07T12:33:28.064Z,50.37
2022-08-07T12:34:28.965Z,50.53
2022-08-07T12:35:37.591Z,50.53
2022-08-07T12:36:50.037Z,50.84
2022-08-07T12:38:09.527Z,50.97
2022-08-07T12:39:09.421Z,51.25
2022-08-07T12:40:43.644Z,51.07
2022-08-07T12:41:23.387Z,51.66
2022-08-07T12:42:34.347Z,52.15
2022-08-07T12:44:04.108Z,51.66
2022-08-07T12:44:51.158Z,52.04
2022-08-07T12:46:32.344Z,52.64
2022-08-07T12:47:52.602Z,52.45
2022-08-07T12:49:39.523Z,51.87
2022-08-07T12:50:48.861Z,51.20
2022-08-07T12:52:12.100Z,50.11
2022-08-07T12:54:02.724Z,48.44
2022-08-07T12:56:33.413Z,49.46
2022-08-07T12:57:38.928Z,49.46
2022-08-07T12:58:53.269Z,49.67
2022-08-07T13:00:06.389Z,49.28
2022-08-07T13:01:32.592Z,49.52
2022-08-07T13:02:58.412Z,49.75
2022-08-07T13:04:31.662Z,50.61
2022-08-07T13:06:21.346Z,51.47
2022-08-07T13:08:13.967Z,51.85
2022-08-07T13:09:12.680Z,51.63
2022-08-07T13:10:39.714Z,51.60
2022-08-07T13:12:03.153Z,50.59
2022-08-07T13:13:48.425Z,50.85
2022-08-07T13:14:56.728Z,51.86
2022-08-07T13:16:06.969Z,54.18
2022-08-07T13:17:40.686Z,56.21
2022-08-07T13:18:55.230Z,60.89
2022-08-07T13:20:13.921Z,62.54
2022-08-07T13:21:51.774Z,67.12
2022-08-07T13:22:42.122Z,69.03
2022-08-07T13:24:11.471Z,73.29
2022-08-07T13:25:39.393Z,75.44
2022-08-07T13:26:56.051Z,73.44
2022-08-07T13:28:13.267Z,76.97
2022-08-07T13:29:26.379Z,76.49
2022-08-07T13:30:40.319Z,77.82
2022-08-07T13:31:57.791Z,80.95
2022-08-07T13:34:14.782Z,78.96
2022-08-07T13:34:39.142Z,79.30
2022-08-07T13:35:59.762Z,79.94
2022-08-07T13:38:31.469Z,82.92
2022-08-07T13:41:20.526Z,83.08
2022-08-07T13:42:28.108Z,82.02
2022-08-07T13:43:39.946Z,84.82
2022-08-07T13:44:45.985Z,85.99
2022-08-07T13:46:11.339Z,85.13
2022-08-07T13:47:04.768Z,87.64
2022-08-07T13:48:27.723Z,87.20
2022-08-07T13:50:34.652Z,89.83
2022-08-07T13:50:44.793Z,87.95
2022-08-07T13:52:22.893Z,87.55
2022-08-07T13:52:48.407Z,90.07
2022-08-07T13:54:03.352Z,86.53
2022-08-07T13:55:25.520Z,89.01
2022-08-07T13:56:35.357Z,88.32
2022-08-07T13:57:37.762Z,89.46
2022-08-07T13:59:05.401Z,91.22
2022-08-07T14:00:26.270Z,92.65
2022-08-07T14:01:22.220Z,92.66
2022-08-07T14:02:29.604Z,91.35
2022-08-07T14:04:07.603Z,93.41
2022-08-07T14:04:54.737Z,90.66
2022-08-07T14:06:04.444Z,92.28
2022-08-07T14:07:10.285Z,93.48
2022-08-07T14:08:17.829Z,92.20
2022-08-07T14:10:01.933Z,92.44
2022-08-07T14:10:42.137Z,93.20
2022-08-07T14:11:53.516Z,92.81
2022-08-07T14:13:03.950Z,92.58
2022-08-07T14:14:15.452Z,94.42
2022-08-07T14:15:23.898Z,91.93
2022-08-07T14:16:36.111Z,93.08
2022-08-07T14:18:15.748Z,92.02
2022-08-07T14:19:03.265Z,92.87
2022-08-07T14:20:40.496Z,91.50
2022-08-07T14:22:03.865Z,91.97
2022-08-07T14:22:44.123Z,92.87
2022-08-07T14:24:00.674Z,90.57
2022-08-07T14:25:01.991Z,90.57
2022-08-07T14:26:28.466Z,91.00
2022-08-07T14:28:57.501Z,89.39
2022-08-07T14:30:08.059Z,90.04
2022-08-07T14:31:06.228Z,88.31
2022-08-07T14:32:12.507Z,89.71
2022-08-07T14:33:22.459Z,88.73
2022-08-07T14:34:30.837Z,91.80
2022-08-07T14:35:44.996Z,90.25
2022-08-07T14:36:45.855Z,90.83
2022-08-07T14:38:05.835Z,91.59
2022-08-07T14:39:04.351Z,89.99
2022-08-07T14:41:33.612Z,91.26
2022-08-07T14:42:33.669Z,92.92
2022-08-07T14:43:59.293Z,91.80
2022-08-07T14:46:11.318Z,91.06
2022-08-07T14:47:19.385Z,92.25
2022-08-07T14:48:28.501Z,93.10
2022-08-07T14:49:57.552Z,92.13
2022-08-07T14:50:51.199Z,92.77
2022-08-07T14:52:04.970Z,93.24
2022-08-07T14:55:26.656Z,94.07
2022-08-07T14:56:32.864Z,94.62
2022-08-07T14:57:57.851Z,94.92
2022-08-07T15:00:03.490Z,94.96
2022-08-07T15:01:21.873Z,96.06
2022-08-07T15:02:34.734Z,96.42
2022-08-07T15:04:53.131Z,96.91
2022-08-07T15:05:54.825Z,97.26
2022-08-07T15:06:58.673Z,99.96
2022-08-07T15:08:12.457Z,96.90
2022-08-07T15:09:57.275Z,97.54
2022-08-07T15:10:36.147Z,97.41
2022-08-07T15:11:54.195Z,97.65
2022-08-07T15:12:59.466Z,98.33
2022-08-07T15:14:10.080Z,100.00
2022-08-07T15:15:21.117Z,100.00
2022-08-07T15:16:31.225Z,100.00
2022-08-07T15:17:55.210Z,100.00
2022-08-07T15:18:45.492Z,100.00
2022-08-07T15:20:33.205Z,100.00
2022-08-07T15:22:37.949Z,100.00
2022-08-07T15:25:14.676Z,100.00
2022-08-07T15:25:15.512Z,100.00
2022-08-07T15:26:02.824Z,100.00
2022-08-07T15:27:15.583Z,100.00
2022-08-07T15:30:04.495Z,100.00
2022-08-07T15:32:02.787Z,100.00
2022-08-07T15:34:17.364Z,100.00
2022-08-07T15:36:00.721Z,100.00
2022-08-07T15:37:02.841Z,100.00
2022-08-07T15:38:04.740Z,100.00
2022-08-07T15:40:03.378Z,100.00
2022-08-07T15:41:23.991Z,99.46
2022-08-07T15:44:03.066Z,100.00
2022-08-07T15:46:25.601Z,100.00
2022-08-07T15:48:55.245Z,99.08
2022-08-07T15:50:06.741Z,100.00
2022-08-07T15:51:14.172Z,100.00
2022-08-07T15:52:30.577Z,100.00
2022-08-07T15:53:51.607Z,100.00
2022-08-07T15:54:44.826Z,100.00
2022-08-07T15:56:02.868Z,100.00
2022-08-07T15:57:05.725Z,100.00
2022-08-07T15:58:14.517Z,99.76
2022-08-07T15:59:40.113Z,100.00
2022-08-07T16:00:33.747Z,98.79
2022-08-07T16:01:41.977Z,98.56
2022-08-07T16:02:50.383Z,98.88
2022-08-07T16:03:58.313Z,100.00
2022-08-07T16:05:04.908Z,99.60
2022-08-07T16:06:14.264Z,99.09
2022-08-07T16:08:29.153Z,99.27
2022-08-07T16:08:32.990Z,100.00
2022-08-07T16:09:55.378Z,99.15
2022-08-07T16:11:04.724Z,99.04
2022-08-07T16:12:37.806Z,100.00
2022-08-07T16:13:39.572Z,99.15
2022-08-07T16:15:55.578Z,100.00
2022-08-07T16:16:47.924Z,100.00
2022-08-07T16:18:00.767Z,100.00
2022-08-07T16:19:20.376Z,100.00
2022-08-07T16:20:33.785Z,100.00
2022-08-07T16:22:02.317Z,100.00
2022-08-07T16:23:13.554Z,100.00
2022-08-07T16:24:37.371Z,100.00
2022-08-07T16:27:18.075Z,100.00
2022-08-07T16:29:18.500Z,100.00
2022-08-07T16:31:57.769Z,100.00
2022-08-07T16:34:48.479Z,100.00
2022-08-07T16:36:19.691Z,100.00
2022-08-07T16:38:03.534Z,100.00
2022-08-07T16:39:16.635Z,100.00
2022-08-07T16:40:34.647Z,100.00
2022-08-07T16:42:56.876Z,100.00
2022-08-07T16:44:53.705Z,100.00
2022-08-07T16:46:40.553Z,100.00
2022-08-07T16:47:16.597Z,100.00
2022-08-07T16:48:53.744Z,100.00
2022-08-07T16:50:39.137Z,100.00